sensor_id;sensor_type;location;lat;lon;timestamp;pressure;altitude;pressure_sealevel;temperature;humidity
19845;BME280;10083;51.038;7.012;2022-09-04T00:02:01;99002.28;;;17.82;100.00
19845;BME280;10083;51.038;7.012;2022-09-04T00:04:39;99033.59;;;17.75;100.00
19845;BME280;10083;51.038;7.012;2022-09-04T00:07:17;99092.03;;;17.77;100.00
19845;BME280;10083;51.038;7.012;2022-09-04T00:09:53;99158.50;;;17.81;100.00
19845;BME280;10083;51.038;7.012;2022-09-04T00:12:29;99193.25;;;17.87;100.00
19845;BME280;10083;51.038;7.012;2022-09-04T00:15:03;99177.81;;;17.77;100.00
19845;BME280;10083;51.038;7.012;2022-09-04T00:17:40;99180.78;;;17.74;100.00
19845;BME280;10083;51.038;7.012;2022-09-04T00:20:13;99188.66;;;17.77;100.00
19845;BME280;10083;51.038;7.012;2022-09-04T00:22:48;99189.69;;;17.98;100.00
19845;BME280;10083;51.038;7.012;2022-09-04T00:25:25;99126.66;;;18.18;100.00
19845;BME280;10083;51.038;7.012;2022-09-04T00:27:59;99136.22;;;17.78;100.00
19845;BME280;10083;51.038;7.012;2022-09-04T00:30:32;99212.94;;;17.78;100.00
19845;BME280;10083;51.038;7.012;2022-09-04T00:33:10;99223.59;;;17.69;100.00
19845;BME280;10083;51.038;7.012;2022-09-04T00:35:45;99240.44;;;17.61;100.00
19845;BME280;10083;51.038;7.012;2022-09-04T00:38:20;99231.56;;;17.59;100.00
19845;BME280;10083;51.038;7.012;2022-09-04T00:40:55;99221.19;;;17.53;100.00
19845;BME280;10083;51.038;7.012;2022-09-04T00:46:51;99317.97;;;17.49;100.00
19845;BME280;10083;51.038;7.012;2022-09-04T00:49:39;99422.25;;;17.55;100.00
19845;BME280;10083;51.038;7.012;2022-09-04T00:52:18;99523.53;;;17.52;100.00
19845;BME280;10083;51.038;7.012;2022-09-04T00:55:06;99610.91;;;17.54;100.00
19845;BME280;10083;51.038;7.012;2022-09-04T00:58:22;99684.22;;;17.51;100.00
19845;BME280;10083;51.038;7.012;2022-09-04T01:00:56;99746.44;;;17.66;100.00
19845;BME280;10083;51.038;7.012;2022-09-04T01:03:38;99762.47;;;17.69;100.00
19845;BME280;10083;51.038;7.012;2022-09-04T01:06:34;99761.28;;;17.60;100.00
19845;BME280;10083;51.038;7.012;2022-09-04T01:12:20;99798.03;;;17.50;100.00
19845;BME280;10083;51.038;7.012;2022-09-04T01:14:57;99824.44;;;17.46;100.00
19845;BME280;10083;51.038;7.012;2022-09-04T01:17:32;99832.56;;;17.46;100.00
19845;BME280;10083;51.038;7.012;2022-09-04T01:20:12;99812.38;;;17.38;100.00
19845;BME280;10083;51.038;7.012;2022-09-04T01:22:57;99824.69;;;17.29;100.00
19845;BME280;10083;51.038;7.012;2022-09-04T01:25:49;99823.06;;;17.27;100.00
19845;BME280;10083;51.038;7.012;2022-09-04T01:28:24;99839.41;;;17.25;100.00
19845;BME280;10083;51.038;7.012;2022-09-04T01:30:58;99831.78;;;17.17;100.00
19845;BME280;10083;51.038;7.012;2022-09-04T01:33:33;99829.97;;;17.04;100.00
19845;BME280;10083;51.038;7.012;2022-09-04T01:36:06;99872.31;;;17.05;100.00
19845;BME280;10083;51.038;7.012;2022-09-04T01:38:43;99897.19;;;17.10;100.00
19845;BME280;10083;51.038;7.012;2022-09-04T01:41:20;99903.91;;;17.04;100.00
19845;BME280;10083;51.038;7.012;2022-09-04T01:43:49;99920.22;;;17.03;100.00
19845;BME280;10083;51.038;7.012;2022-09-04T01:46:40;99967.56;;;17.24;100.00
19845;BME280;10083;51.038;7.012;2022-09-04T01:49:19;99940.69;;;17.21;100.00
19845;BME280;10083;51.038;7.012;2022-09-04T01:51:58;99934.31;;;17.08;100.00
19845;BME280;10083;51.038;7.012;2022-09-04T01:54:36;99964.75;;;16.97;100.00
19845;BME280;10083;51.038;7.012;2022-09-04T01:57:16;99997.22;;;16.97;100.00
19845;BME280;10083;51.038;7.012;2022-09-04T01:59:55;100018.28;;;16.92;100.00
19845;BME280;10083;51.038;7.012;2022-09-04T02:02:40;100065.84;;;16.81;100.00
19845;BME280;10083;51.038;7.012;2022-09-04T02:05:17;100116.28;;;16.82;100.00
19845;BME280;10083;51.038;7.012;2022-09-04T02:07:50;100191.56;;;16.89;100.00
19845;BME280;10083;51.038;7.012;2022-09-04T02:10:36;100243.50;;;16.96;100.00
19845;BME280;10083;51.038;7.012;2022-09-04T02:13:15;100274.00;;;16.98;100.00
19845;BME280;10083;51.038;7.012;2022-09-04T02:15:53;100281.63;;;16.91;100.00
19845;BME280;10083;51.038;7.012;2022-09-04T02:18:36;100383.41;;;17.09;100.00
19845;BME280;10083;51.038;7.012;2022-09-04T02:21:15;100429.97;;;16.99;100.00
19845;BME280;10083;51.038;7.012;2022-09-04T02:23:56;100509.06;;;17.04;100.00
19845;BME280;10083;51.038;7.012;2022-09-04T02:26:31;100567.47;;;17.08;100.00
19845;BME280;10083;51.038;7.012;2022-09-04T02:29:07;100596.84;;;16.98;100.00
19845;BME280;10083;51.038;7.012;2022-09-04T02:31:42;100599.16;;;16.89;100.00
19845;BME280;10083;51.038;7.012;2022-09-04T02:34:20;100606.66;;;16.84;100.00
19845;BME280;10083;51.038;7.012;2022-09-04T02:36:58;100617.78;;;16.78;100.00
19845;BME280;10083;51.038;7.012;2022-09-04T02:39:39;100625.50;;;16.85;100.00
19845;BME280;10083;51.038;7.012;2022-09-04T02:42:17;100653.25;;;16.89;100.00
19845;BME280;10083;51.038;7.012;2022-09-04T02:45:00;100676.34;;;16.96;100.00
19845;BME280;10083;51.038;7.012;2022-09-04T02:47:36;100689.53;;;16.85;100.00
19845;BME280;10083;51.038;7.012;2022-09-04T02:50:10;100698.84;;;16.79;100.00
19845;BME280;10083;51.038;7.012;2022-09-04T02:52:57;100676.94;;;16.66;100.00
19845;BME280;10083;51.038;7.012;2022-09-04T02:55:41;100678.03;;;16.62;100.00
19845;BME280;10083;51.038;7.012;2022-09-04T02:58:18;100657.44;;;16.60;100.00
19845;BME280;10083;51.038;7.012;2022-09-04T03:00:58;100644.81;;;16.60;100.00
19845;BME280;10083;51.038;7.012;2022-09-04T03:03:33;100615.66;;;16.48;100.00
19845;BME280;10083;51.038;7.012;2022-09-04T03:06:07;100626.31;;;16.51;100.00
19845;BME280;10083;51.038;7.012;2022-09-04T03:08:40;100622.78;;;16.49;100.00
19845;BME280;10083;51.038;7.012;2022-09-04T03:11:14;100610.84;;;16.53;100.00
19845;BME280;10083;51.038;7.012;2022-09-04T03:13:49;100577.63;;;16.51;100.00
19845;BME280;10083;51.038;7.012;2022-09-04T03:16:23;100539.53;;;16.39;100.00
19845;BME280;10083;51.038;7.012;2022-09-04T03:18:58;100533.25;;;16.38;100.00
19845;BME280;10083;51.038;7.012;2022-09-04T03:21:32;100563.31;;;16.49;100.00
19845;BME280;10083;51.038;7.012;2022-09-04T03:24:06;100552.19;;;16.38;100.00
19845;BME280;10083;51.038;7.012;2022-09-04T03:26:36;100526.25;;;16.17;100.00
19845;BME280;10083;51.038;7.012;2022-09-04T03:29:11;100553.31;;;16.15;100.00
19845;BME280;10083;51.038;7.012;2022-09-04T03:31:57;100542.91;;;16.08;100.00
19845;BME280;10083;51.038;7.012;2022-09-04T03:34:38;100553.53;;;16.11;100.00
19845;BME280;10083;51.038;7.012;2022-09-04T03:37:15;100550.56;;;15.98;100.00
19845;BME280;10083;51.038;7.012;2022-09-04T03:39:53;100551.63;;;15.96;100.00
19845;BME280;10083;51.038;7.012;2022-09-04T03:42:32;100537.47;;;15.91;100.00
19845;BME280;10083;51.038;7.012;2022-09-04T03:45:10;100532.22;;;15.88;100.00
19845;BME280;10083;51.038;7.012;2022-09-04T03:47:49;100534.81;;;15.89;100.00
19845;BME280;10083;51.038;7.012;2022-09-04T03:50:26;100538.09;;;15.96;100.00
19845;BME280;10083;51.038;7.012;2022-09-04T03:53:03;100511.38;;;15.90;100.00
19845;BME280;10083;51.038;7.012;2022-09-04T03:55:52;100522.13;;;15.91;100.00
19845;BME280;10083;51.038;7.012;2022-09-04T03:58:27;100533.59;;;15.96;100.00
19845;BME280;10083;51.038;7.012;2022-09-04T04:01:05;100510.44;;;15.91;100.00
19845;BME280;10083;51.038;7.012;2022-09-04T04:03:56;100497.00;;;15.89;100.00
19845;BME280;10083;51.038;7.012;2022-09-04T04:06:33;100504.31;;;15.87;100.00
19845;BME280;10083;51.038;7.012;2022-09-04T04:09:18;100498.28;;;15.82;100.00
19845;BME280;10083;51.038;7.012;2022-09-04T04:11:57;100499.81;;;15.88;100.00
19845;BME280;10083;51.038;7.012;2022-09-04T04:14:49;100503.00;;;15.96;100.00
19845;BME280;10083;51.038;7.012;2022-09-04T04:17:29;100502.34;;;15.91;100.00
19845;BME280;10083;51.038;7.012;2022-09-04T04:20:19;100492.19;;;15.96;100.00
19845;BME280;10083;51.038;7.012;2022-09-04T04:22:57;100495.84;;;15.95;100.00
19845;BME280;10083;51.038;7.012;2022-09-04T04:25:42;100493.84;;;15.98;100.00
19845;BME280;10083;51.038;7.012;2022-09-04T04:28:23;100477.59;;;16.00;100.00
19845;BME280;10083;51.038;7.012;2022-09-04T04:31:08;100467.22;;;15.91;100.00
19845;BME280;10083;51.038;7.012;2022-09-04T04:33:45;100466.28;;;15.92;100.00
19845;BME280;10083;51.038;7.012;2022-09-04T04:36:24;100457.31;;;15.91;100.00
19845;BME280;10083;51.038;7.012;2022-09-04T04:39:13;100450.44;;;15.84;100.00
19845;BME280;10083;51.038;7.012;2022-09-04T04:41:54;100465.63;;;15.87;100.00
19845;BME280;10083;51.038;7.012;2022-09-04T04:44:43;100459.59;;;15.81;100.00
19845;BME280;10083;51.038;7.012;2022-09-04T04:47:45;100466.09;;;15.77;100.00
19845;BME280;10083;51.038;7.012;2022-09-04T04:50:21;100484.94;;;15.79;100.00
19845;BME280;10083;51.038;7.012;2022-09-04T04:52:58;100538.19;;;15.75;100.00
19845;BME280;10083;51.038;7.012;2022-09-04T04:55:37;100568.97;;;15.71;100.00
19845;BME280;10083;51.038;7.012;2022-09-04T04:58:31;100573.38;;;15.74;100.00
19845;BME280;10083;51.038;7.012;2022-09-04T05:01:10;100566.28;;;15.71;100.00
19845;BME280;10083;51.038;7.012;2022-09-04T05:03:50;100620.16;;;15.74;100.00
19845;BME280;10083;51.038;7.012;2022-09-04T05:06:27;100664.13;;;15.97;100.00
19845;BME280;10083;51.038;7.012;2022-09-04T05:09:11;100644.47;;;15.93;100.00
19845;BME280;10083;51.038;7.012;2022-09-04T05:11:48;100665.41;;;16.07;100.00
19845;BME280;10083;51.038;7.012;2022-09-04T05:14:27;100705.44;;;16.36;100.00
19845;BME280;10083;51.038;7.012;2022-09-04T05:17:05;100699.53;;;16.47;100.00
19845;BME280;10083;51.038;7.012;2022-09-04T05:19:43;100674.75;;;16.56;100.00
19845;BME280;10083;51.038;7.012;2022-09-04T05:22:16;100651.41;;;16.53;100.00
19845;BME280;10083;51.038;7.012;2022-09-04T05:24:57;100636.47;;;16.65;100.00
19845;BME280;10083;51.038;7.012;2022-09-04T05:27:45;100591.94;;;16.53;100.00
19845;BME280;10083;51.038;7.012;2022-09-04T05:30:18;100593.69;;;16.54;100.00
19845;BME280;10083;51.038;7.012;2022-09-04T05:32:54;100567.47;;;16.56;100.00
19845;BME280;10083;51.038;7.012;2022-09-04T05:35:29;100551.19;;;16.58;100.00
19845;BME280;10083;51.038;7.012;2022-09-04T05:38:04;100530.88;;;16.49;100.00
19845;BME280;10083;51.038;7.012;2022-09-04T05:40:57;100542.22;;;16.57;100.00
19845;BME280;10083;51.038;7.012;2022-09-04T05:43:32;100521.28;;;16.61;100.00
19845;BME280;10083;51.038;7.012;2022-09-04T05:46:05;100516.19;;;16.72;100.00
19845;BME280;10083;51.038;7.012;2022-09-04T05:48:41;100503.31;;;16.77;100.00
19845;BME280;10083;51.038;7.012;2022-09-04T05:54:48;100491.88;;;17.05;100.00
19845;BME280;10083;51.038;7.012;2022-09-04T05:57:30;100503.94;;;17.15;100.00
19845;BME280;10083;51.038;7.012;2022-09-04T06:00:07;100508.84;;;17.24;100.00
19845;BME280;10083;51.038;7.012;2022-09-04T06:03:12;100505.28;;;17.24;100.00
19845;BME280;10083;51.038;7.012;2022-09-04T06:05:55;100520.06;;;17.34;100.00
19845;BME280;10083;51.038;7.012;2022-09-04T06:11:35;100515.78;;;17.45;100.00
19845;BME280;10083;51.038;7.012;2022-09-04T06:14:17;100525.16;;;17.55;100.00
19845;BME280;10083;51.038;7.012;2022-09-04T06:19:57;100526.25;;;17.69;100.00
19845;BME280;10083;51.038;7.012;2022-09-04T06:22:43;100547.91;;;17.84;100.00
19845;BME280;10083;51.038;7.012;2022-09-04T06:25:25;100557.34;;;17.93;100.00
19845;BME280;10083;51.038;7.012;2022-09-04T06:28:19;100558.78;;;18.00;100.00
19845;BME280;10083;51.038;7.012;2022-09-04T06:30:57;100565.75;;;18.04;100.00
19845;BME280;10083;51.038;7.012;2022-09-04T06:33:37;100554.22;;;18.16;100.00
19845;BME280;10083;51.038;7.012;2022-09-04T06:39:36;100530.22;;;18.24;100.00
19845;BME280;10083;51.038;7.012;2022-09-04T06:42:21;100560.31;;;18.35;100.00
19845;BME280;10083;51.038;7.012;2022-09-04T06:45:11;100578.22;;;18.38;100.00
19845;BME280;10083;51.038;7.012;2022-09-04T06:47:54;100600.72;;;18.56;100.00
19845;BME280;10083;51.038;7.012;2022-09-04T06:50:30;100611.03;;;18.65;100.00
19845;BME280;10083;51.038;7.012;2022-09-04T06:53:08;100637.03;;;18.69;100.00
19845;BME280;10083;51.038;7.012;2022-09-04T06:56:02;100619.25;;;18.79;100.00
19845;BME280;10083;51.038;7.012;2022-09-04T06:59:02;100637.56;;;18.89;100.00
19845;BME280;10083;51.038;7.012;2022-09-04T07:01:36;100652.03;;;18.90;100.00
19845;BME280;10083;51.038;7.012;2022-09-04T07:04:26;100674.34;;;18.95;100.00
19845;BME280;10083;51.038;7.012;2022-09-04T07:07:04;100674.50;;;19.08;100.00
19845;BME280;10083;51.038;7.012;2022-09-04T07:09:38;100682.97;;;19.17;100.00
19845;BME280;10083;51.038;7.012;2022-09-04T07:12:30;100693.63;;;19.20;100.00
19845;BME280;10083;51.038;7.012;2022-09-04T07:18:16;100746.59;;;19.43;100.00
19845;BME280;10083;51.038;7.012;2022-09-04T07:20:58;100783.41;;;19.49;100.00
19845;BME280;10083;51.038;7.012;2022-09-04T07:23:36;100811.25;;;19.52;100.00
19845;BME280;10083;51.038;7.012;2022-09-04T07:26:19;100837.78;;;19.63;100.00
19845;BME280;10083;51.038;7.012;2022-09-04T07:29:04;100836.63;;;19.67;100.00
19845;BME280;10083;51.038;7.012;2022-09-04T07:31:38;100861.94;;;19.83;100.00
19845;BME280;10083;51.038;7.012;2022-09-04T07:34:15;100879.00;;;20.01;100.00
19845;BME280;10083;51.038;7.012;2022-09-04T07:36:54;100867.91;;;20.04;100.00
19845;BME280;10083;51.038;7.012;2022-09-04T07:39:31;100870.34;;;20.08;100.00
19845;BME280;10083;51.038;7.012;2022-09-04T07:42:08;100875.44;;;20.14;100.00
19845;BME280;10083;51.038;7.012;2022-09-04T07:44:43;100907.19;;;20.28;100.00
19845;BME280;10083;51.038;7.012;2022-09-04T07:47:19;100922.63;;;20.43;100.00
19845;BME280;10083;51.038;7.012;2022-09-04T07:49:56;100918.56;;;20.50;100.00
19845;BME280;10083;51.038;7.012;2022-09-04T07:52:48;100896.50;;;20.55;100.00
19845;BME280;10083;51.038;7.012;2022-09-04T07:55:23;100899.03;;;20.44;100.00
19845;BME280;10083;51.038;7.012;2022-09-04T07:58:21;100917.31;;;20.70;100.00
19845;BME280;10083;51.038;7.012;2022-09-04T08:01:19;100884.91;;;20.94;100.00
19845;BME280;10083;51.038;7.012;2022-09-04T08:06:48;100836.69;;;20.96;100.00
19845;BME280;10083;51.038;7.012;2022-09-04T08:09:36;100827.91;;;21.19;100.00
19845;BME280;10083;51.038;7.012;2022-09-04T08:12:42;100765.50;;;21.29;100.00
19845;BME280;10083;51.038;7.012;2022-09-04T08:18:07;100801.47;;;21.60;100.00
19845;BME280;10083;51.038;7.012;2022-09-04T08:20:44;100748.25;;;21.55;100.00
19845;BME280;10083;51.038;7.012;2022-09-04T08:23:33;100728.53;;;21.77;100.00
19845;BME280;10083;51.038;7.012;2022-09-04T08:26:14;100696.50;;;21.93;100.00
19845;BME280;10083;51.038;7.012;2022-09-04T08:29:06;100615.13;;;21.87;100.00
19845;BME280;10083;51.038;7.012;2022-09-04T08:31:45;100588.44;;;22.16;100.00
19845;BME280;10083;51.038;7.012;2022-09-04T08:34:43;100535.53;;;22.18;100.00
19845;BME280;10083;51.038;7.012;2022-09-04T08:37:23;100446.75;;;22.25;100.00
19845;BME280;10083;51.038;7.012;2022-09-04T08:40:02;100452.03;;;22.39;100.00
19845;BME280;10083;51.038;7.012;2022-09-04T08:43:03;100420.22;;;22.62;100.00
19845;BME280;10083;51.038;7.012;2022-09-04T08:46:10;100328.91;;;22.77;100.00
19845;BME280;10083;51.038;7.012;2022-09-04T08:49:13;100249.22;;;22.83;100.00
19845;BME280;10083;51.038;7.012;2022-09-04T08:52:14;100135.34;;;23.16;100.00
19845;BME280;10083;51.038;7.012;2022-09-04T08:55:08;100021.03;;;23.41;100.00
19845;BME280;10083;51.038;7.012;2022-09-04T08:58:13;99941.59;;;23.33;100.00
19845;BME280;10083;51.038;7.012;2022-09-04T09:01:23;99876.66;;;23.47;100.00
19845;BME280;10083;51.038;7.012;2022-09-04T09:07:04;99736.09;;;23.68;100.00
19845;BME280;10083;51.038;7.012;2022-09-04T09:10:14;99599.53;;;23.38;100.00
19845;BME280;10083;51.038;7.012;2022-09-04T09:16:17;99443.13;;;24.18;100.00
19845;BME280;10083;51.038;7.012;2022-09-04T09:19:01;99346.53;;;24.43;100.00
19845;BME280;10083;51.038;7.012;2022-09-04T09:21:42;99276.13;;;24.10;100.00
19845;BME280;10083;51.038;7.012;2022-09-04T09:27:29;99201.91;;;24.30;100.00
19845;BME280;10083;51.038;7.012;2022-09-04T09:30:04;99127.75;;;24.50;100.00
19845;BME280;10083;51.038;7.012;2022-09-04T09:32:55;99053.97;;;24.90;100.00
19845;BME280;10083;51.038;7.012;2022-09-04T09:36:05;98967.13;;;24.83;100.00
19845;BME280;10083;51.038;7.012;2022-09-04T09:42:03;98845.75;;;24.98;100.00
19845;BME280;10083;51.038;7.012;2022-09-04T09:44:51;98801.22;;;25.04;100.00
19845;BME280;10083;51.038;7.012;2022-09-04T09:47:52;98720.19;;;25.80;100.00
19845;BME280;10083;51.038;7.012;2022-09-04T09:50:48;98642.75;;;26.07;100.00
19845;BME280;10083;51.038;7.012;2022-09-04T09:59:45;98466.59;;;26.62;100.00
19845;BME280;10083;51.038;7.012;2022-09-04T10:02:48;98361.63;;;27.71;100.00
19845;BME280;10083;51.038;7.012;2022-09-04T10:08:47;98468.91;;;27.43;100.00
19845;BME280;10083;51.038;7.012;2022-09-04T10:11:38;98573.38;;;27.58;100.00
19845;BME280;10083;51.038;7.012;2022-09-04T10:14:30;98812.22;;;27.91;100.00
19845;BME280;10083;51.038;7.012;2022-09-04T10:17:24;99134.72;;;28.90;100.00
19845;BME280;10083;51.038;7.012;2022-09-04T10:20:35;99456.09;;;28.70;100.00
19845;BME280;10083;51.038;7.012;2022-09-04T10:23:37;99689.41;;;29.25;100.00
19845;BME280;10083;51.038;7.012;2022-09-04T10:29:42;100110.72;;;29.89;100.00
19845;BME280;10083;51.038;7.012;2022-09-04T10:35:24;100413.19;;;29.93;100.00
19845;BME280;10083;51.038;7.012;2022-09-04T10:44:16;100691.00;;;30.55;100.00
19845;BME280;10083;51.038;7.012;2022-09-04T10:46:56;100785.75;;;30.99;100.00
19845;BME280;10083;51.038;7.012;2022-09-04T10:49:50;100774.25;;;31.70;100.00
19845;BME280;10083;51.038;7.012;2022-09-04T10:52:49;100827.75;;;31.95;100.00
19845;BME280;10083;51.038;7.012;2022-09-04T10:55:34;100893.97;;;32.06;100.00
19845;BME280;10083;51.038;7.012;2022-09-04T10:58:30;101006.31;;;32.18;100.00
19845;BME280;10083;51.038;7.012;2022-09-04T11:10:37;101144.81;;;34.15;100.00
19845;BME280;10083;51.038;7.012;2022-09-04T11:16:28;101152.53;;;34.83;100.00
19845;BME280;10083;51.038;7.012;2022-09-04T11:28:49;101181.75;;;36.45;100.00
19845;BME280;10083;51.038;7.012;2022-09-04T11:31:33;101191.69;;;36.33;100.00
19845;BME280;10083;51.038;7.012;2022-09-04T11:40:40;101201.31;;;31.75;100.00
19845;BME280;10083;51.038;7.012;2022-09-04T11:43:39;101172.56;;;32.02;100.00
19845;BME280;10083;51.038;7.012;2022-09-04T11:46:36;101178.47;;;34.44;100.00
19845;BME280;10083;51.038;7.012;2022-09-04T11:49:31;101186.53;;;34.23;100.00
19845;BME280;10083;51.038;7.012;2022-09-04T11:52:14;101186.59;;;32.68;100.00
19845;BME280;10083;51.038;7.012;2022-09-04T11:55:23;101177.81;;;34.26;100.00
19845;BME280;10083;51.038;7.012;2022-09-04T11:58:09;101191.81;;;34.49;100.00
19845;BME280;10083;51.038;7.012;2022-09-04T12:00:49;101199.06;;;36.69;100.00
19845;BME280;10083;51.038;7.012;2022-09-04T12:03:39;101200.59;;;34.14;100.00
19845;BME280;10083;51.038;7.012;2022-09-04T12:06:29;101199.94;;;32.30;100.00
19845;BME280;10083;51.038;7.012;2022-09-04T12:09:18;101186.06;;;31.00;100.00
19845;BME280;10083;51.038;7.012;2022-09-04T12:12:13;101187.47;;;32.68;100.00
19845;BME280;10083;51.038;7.012;2022-09-04T12:15:15;101188.41;;;31.48;100.00
19845;BME280;10083;51.038;7.012;2022-09-04T12:21:08;101194.31;;;30.55;100.00
19845;BME280;10083;51.038;7.012;2022-09-04T12:24:05;101170.00;;;29.75;100.00
19845;BME280;10083;51.038;7.012;2022-09-04T12:27:10;101134.44;;;29.53;100.00
19845;BME280;10083;51.038;7.012;2022-09-04T12:30:02;101135.88;;;29.67;100.00
19845;BME280;10083;51.038;7.012;2022-09-04T12:33:19;101116.75;;;29.27;100.00
19845;BME280;10083;51.038;7.012;2022-09-04T12:39:21;101079.28;;;28.76;100.00
19845;BME280;10083;51.038;7.012;2022-09-04T12:41:57;101078.44;;;28.75;100.00
19845;BME280;10083;51.038;7.012;2022-09-04T12:44:41;101076.78;;;28.63;100.00
19845;BME280;10083;51.038;7.012;2022-09-04T12:47:25;101070.59;;;28.71;100.00
19845;BME280;10083;51.038;7.012;2022-09-04T12:50:07;101088.28;;;29.07;100.00
19845;BME280;10083;51.038;7.012;2022-09-04T12:52:52;101084.25;;;28.92;100.00
19845;BME280;10083;51.038;7.012;2022-09-04T12:55:32;101081.88;;;29.16;100.00
19845;BME280;10083;51.038;7.012;2022-09-04T12:58:15;101081.28;;;28.64;100.00
19845;BME280;10083;51.038;7.012;2022-09-04T13:00:52;101072.78;;;28.87;100.00
19845;BME280;10083;51.038;7.012;2022-09-04T13:03:27;101098.06;;;31.29;100.00
19845;BME280;10083;51.038;7.012;2022-09-04T13:06:11;101143.00;;;32.60;100.00
19845;BME280;10083;51.038;7.012;2022-09-04T13:08:58;101169.31;;;31.80;100.00
19845;BME280;10083;51.038;7.012;2022-09-04T13:11:42;101168.69;;;33.93;100.00
19845;BME280;10083;51.038;7.012;2022-09-04T13:14:32;101187.84;;;34.82;100.00
19845;BME280;10083;51.038;7.012;2022-09-04T13:17:07;101205.00;;;34.55;96.24
19845;BME280;10083;51.038;7.012;2022-09-04T13:22:34;101215.25;;;33.91;100.00
19845;BME280;10083;51.038;7.012;2022-09-04T13:25:15;101209.34;;;33.46;99.39
19845;BME280;10083;51.038;7.012;2022-09-04T13:27:58;101209.28;;;35.35;95.47
19845;BME280;10083;51.038;7.012;2022-09-04T13:30:28;101223.50;;;34.87;91.44
19845;BME280;10083;51.038;7.012;2022-09-04T13:33:14;101222.72;;;33.99;93.64
19845;BME280;10083;51.038;7.012;2022-09-04T13:36:06;101210.31;;;33.12;95.69
19845;BME280;10083;51.038;7.012;2022-09-04T13:42:00;101232.31;;;32.22;98.36
19845;BME280;10083;51.038;7.012;2022-09-04T13:47:38;101234.59;;;32.26;94.51
19845;BME280;10083;51.038;7.012;2022-09-04T13:50:14;101232.72;;;31.13;100.00
19845;BME280;10083;51.038;7.012;2022-09-04T13:52:53;101234.69;;;30.75;100.00
19845;BME280;10083;51.038;7.012;2022-09-04T13:55:27;101230.38;;;30.26;100.00
19845;BME280;10083;51.038;7.012;2022-09-04T13:58:04;101229.03;;;29.93;100.00
19845;BME280;10083;51.038;7.012;2022-09-04T14:00:37;101215.97;;;29.67;100.00
19845;BME280;10083;51.038;7.012;2022-09-04T14:03:14;101204.59;;;29.02;100.00
19845;BME280;10083;51.038;7.012;2022-09-04T14:05:45;101207.03;;;28.86;100.00
19845;BME280;10083;51.038;7.012;2022-09-04T14:08:14;101196.75;;;28.98;100.00
19845;BME280;10083;51.038;7.012;2022-09-04T14:11:00;101201.38;;;28.78;100.00
19845;BME280;10083;51.038;7.012;2022-09-04T14:13:48;101187.16;;;30.25;100.00
19845;BME280;10083;51.038;7.012;2022-09-04T14:16:21;101204.09;;;30.13;100.00
19845;BME280;10083;51.038;7.012;2022-09-04T14:19:02;101199.22;;;29.78;100.00
19845;BME280;10083;51.038;7.012;2022-09-04T15:05:59;101183.88;;;29.37;100.00
19845;BME280;10083;51.038;7.012;2022-09-04T15:08:31;101180.94;;;29.29;100.00
19845;BME280;10083;51.038;7.012;2022-09-04T15:11:00;101177.00;;;29.12;100.00
19845;BME280;10083;51.038;7.012;2022-09-04T15:13:48;101170.28;;;28.76;100.00
19845;BME280;10083;51.038;7.012;2022-09-04T15:16:43;101173.50;;;28.71;100.00
19845;BME280;10083;51.038;7.012;2022-09-04T15:19:30;101185.16;;;28.54;100.00
19845;BME280;10083;51.038;7.012;2022-09-04T15:22:11;101177.59;;;29.15;100.00
19845;BME280;10083;51.038;7.012;2022-09-04T15:24:51;101169.03;;;29.09;100.00
19845;BME280;10083;51.038;7.012;2022-09-04T15:27:58;101175.44;;;29.09;100.00
19845;BME280;10083;51.038;7.012;2022-09-04T15:30:29;101169.97;;;28.69;100.00
19845;BME280;10083;51.038;7.012;2022-09-04T15:33:03;101169.06;;;28.59;100.00
19845;BME280;10083;51.038;7.012;2022-09-04T15:35:33;101172.53;;;28.52;100.00
19845;BME280;10083;51.038;7.012;2022-09-04T15:38:08;101160.47;;;28.83;100.00
19845;BME280;10083;51.038;7.012;2022-09-04T15:40:49;101169.91;;;29.00;100.00
19845;BME280;10083;51.038;7.012;2022-09-04T15:43:25;101157.69;;;28.73;100.00
19845;BME280;10083;51.038;7.012;2022-09-04T15:45:59;101164.59;;;28.68;100.00
19845;BME280;10083;51.038;7.012;2022-09-04T15:48:41;101168.03;;;28.41;100.00
19845;BME280;10083;51.038;7.012;2022-09-04T15:51:26;101176.31;;;28.51;100.00
19845;BME280;10083;51.038;7.012;2022-09-04T15:54:20;101170.50;;;28.44;100.00
19845;BME280;10083;51.038;7.012;2022-09-04T15:57:00;101163.56;;;28.59;100.00
19845;BME280;10083;51.038;7.012;2022-09-04T15:59:35;101177.59;;;28.47;100.00
19845;BME280;10083;51.038;7.012;2022-09-04T16:02:45;101165.88;;;28.45;100.00
19845;BME280;10083;51.038;7.012;2022-09-04T16:05:28;101169.91;;;28.41;100.00
19845;BME280;10083;51.038;7.012;2022-09-04T16:08:16;101169.06;;;28.50;100.00
19845;BME280;10083;51.038;7.012;2022-09-04T16:11:10;101165.38;;;28.70;100.00
19845;BME280;10083;51.038;7.012;2022-09-04T16:13:53;101176.06;;;28.54;100.00
19845;BME280;10083;51.038;7.012;2022-09-04T16:16:24;101162.31;;;28.23;100.00
19845;BME280;10083;51.038;7.012;2022-09-04T16:19:00;101166.78;;;28.24;100.00
19845;BME280;10083;51.038;7.012;2022-09-04T16:21:36;101166.63;;;28.16;100.00
19845;BME280;10083;51.038;7.012;2022-09-04T16:24:31;101168.66;;;28.24;100.00
19845;BME280;10083;51.038;7.012;2022-09-04T16:27:08;101162.78;;;28.38;100.00
19845;BME280;10083;51.038;7.012;2022-09-04T16:29:42;101162.44;;;28.22;100.00
19845;BME280;10083;51.038;7.012;2022-09-04T16:32:20;101159.78;;;28.11;100.00
19845;BME280;10083;51.038;7.012;2022-09-04T16:34:52;101163.78;;;28.27;100.00